Aldenville, Pennsylvania
Current Conditions -  °F | °C
As of 6:55 PM on Sunday 21 Dec 2014 (Local Time) from KMSV Reporting Station
Overcast Overcast  
Wind Chill: 28°   Ceiling: 2100
Heat Index: 28°   Visibility: 10mi
Dew Point: 25°   Wind: 3mph
Humidity: 86%   Direction: 290°WNW
Pressure: 30.29"   Gusts: NA
Location:  41.65°N, 75.36°W
Report Text: KMSV 212355Z AUTO 29003KT 10SM OVC021 M02/M04 A3029 RMK AO1 11010 21020 410101040 52014
Loading
Personal Weather Stations






























Interactive Weather Map New forecast layout! Learn more

10-Day Weather Forecast

Advertisements
Track Severe Weather on mobile